sensor_id;sensor_type;location;lat;lon;timestamp;P1;durP1;ratioP1;P2;durP2;ratioP2
73857;SDS011;62195;55.030;73.278;2022-09-27T00:01:07;1.85;;;1.25;;
73857;SDS011;62195;55.030;73.278;2022-09-27T00:03:41;1.65;;;1.00;;
73857;SDS011;62195;55.030;73.278;2022-09-27T00:08:41;2.03;;;1.13;;
73857;SDS011;62195;55.030;73.278;2022-09-27T00:11:11;1.08;;;0.88;;
73857;SDS011;62195;55.030;73.278;2022-09-27T00:13:45;1.85;;;1.10;;
73857;SDS011;62195;55.030;73.278;2022-09-27T00:16:11;2.47;;;1.10;;
73857;SDS011;62195;55.030;73.278;2022-09-27T00:18:45;1.85;;;0.93;;
73857;SDS011;62195;55.030;73.278;2022-09-27T00:21:15;1.98;;;1.10;;
73857;SDS011;62195;55.030;73.278;2022-09-27T00:23:47;1.88;;;1.15;;
73857;SDS011;62195;55.030;73.278;2022-09-27T00:26:23;2.10;;;1.20;;
73857;SDS011;62195;55.030;73.278;2022-09-27T00:28:50;2.80;;;1.10;;
73857;SDS011;62195;55.030;73.278;2022-09-27T00:31:18;1.55;;;1.00;;
73857;SDS011;62195;55.030;73.278;2022-09-27T00:33:49;1.65;;;1.10;;
73857;SDS011;62195;55.030;73.278;2022-09-27T00:36:18;1.30;;;1.00;;
73857;SDS011;62195;55.030;73.278;2022-09-27T00:38:46;2.03;;;1.25;;
73857;SDS011;62195;55.030;73.278;2022-09-27T00:41:13;1.52;;;0.90;;
73857;SDS011;62195;55.030;73.278;2022-09-27T00:43:56;1.40;;;1.17;;
73857;SDS011;62195;55.030;73.278;2022-09-27T00:46:42;2.45;;;1.23;;
73857;SDS011;62195;55.030;73.278;2022-09-27T00:49:20;2.35;;;1.10;;
73857;SDS011;62195;55.030;73.278;2022-09-27T00:51:56;1.42;;;0.90;;
73857;SDS011;62195;55.030;73.278;2022-09-27T00:54:28;2.45;;;1.30;;
73857;SDS011;62195;55.030;73.278;2022-09-27T00:56:57;2.15;;;1.13;;
73857;SDS011;62195;55.030;73.278;2022-09-27T01:01:57;5.68;;;1.23;;
73857;SDS011;62195;55.030;73.278;2022-09-27T01:04:25;1.33;;;1.15;;
73857;SDS011;62195;55.030;73.278;2022-09-27T01:06:53;2.38;;;1.20;;
73857;SDS011;62195;55.030;73.278;2022-09-27T01:09:19;2.50;;;1.30;;
73857;SDS011;62195;55.030;73.278;2022-09-27T01:11:50;1.30;;;0.93;;
73857;SDS011;62195;55.030;73.278;2022-09-27T01:22:51;1.50;;;1.00;;
73857;SDS011;62195;55.030;73.278;2022-09-27T01:31:00;1.88;;;1.30;;
73857;SDS011;62195;55.030;73.278;2022-09-27T01:39:19;2.72;;;1.30;;
73857;SDS011;62195;55.030;73.278;2022-09-27T01:47:28;2.42;;;1.70;;
73857;SDS011;62195;55.030;73.278;2022-09-27T01:50:40;2.05;;;1.60;;
73857;SDS011;62195;55.030;73.278;2022-09-27T01:53:24;3.58;;;1.50;;
73857;SDS011;62195;55.030;73.278;2022-09-27T01:56:21;2.60;;;1.60;;
73857;SDS011;62195;55.030;73.278;2022-09-27T01:59:02;2.58;;;1.40;;
73857;SDS011;62195;55.030;73.278;2022-09-27T02:01:37;2.53;;;1.45;;
73857;SDS011;62195;55.030;73.278;2022-09-27T02:04:07;4.00;;;1.48;;
73857;SDS011;62195;55.030;73.278;2022-09-27T02:06:44;2.17;;;1.30;;
73857;SDS011;62195;55.030;73.278;2022-09-27T02:09:38;1.30;;;1.05;;
73857;SDS011;62195;55.030;73.278;2022-09-27T02:12:18;1.52;;;1.20;;
73857;SDS011;62195;55.030;73.278;2022-09-27T02:14:55;1.02;;;0.93;;
73857;SDS011;62195;55.030;73.278;2022-09-27T02:22:50;1.00;;;0.90;;
73857;SDS011;62195;55.030;73.278;2022-09-27T02:25:45;2.47;;;0.90;;
73857;SDS011;62195;55.030;73.278;2022-09-27T02:28:34;2.22;;;1.00;;
73857;SDS011;62195;55.030;73.278;2022-09-27T02:31:08;2.80;;;1.35;;
73857;SDS011;62195;55.030;73.278;2022-09-27T02:36:16;2.15;;;1.20;;
73857;SDS011;62195;55.030;73.278;2022-09-27T02:38:42;1.70;;;1.20;;
73857;SDS011;62195;55.030;73.278;2022-09-27T02:41:15;2.00;;;1.17;;
73857;SDS011;62195;55.030;73.278;2022-09-27T02:43:53;1.23;;;0.90;;
73857;SDS011;62195;55.030;73.278;2022-09-27T02:49:42;1.50;;;1.10;;
73857;SDS011;62195;55.030;73.278;2022-09-27T02:55:22;1.08;;;0.88;;
73857;SDS011;62195;55.030;73.278;2022-09-27T02:59:02;2.65;;;1.33;;
73857;SDS011;62195;55.030;73.278;2022-09-27T03:07:28;1.30;;;1.02;;
73857;SDS011;62195;55.030;73.278;2022-09-27T03:10:05;1.65;;;1.00;;
73857;SDS011;62195;55.030;73.278;2022-09-27T03:12:32;1.48;;;1.10;;
73857;SDS011;62195;55.030;73.278;2022-09-27T03:15:02;3.67;;;1.50;;
73857;SDS011;62195;55.030;73.278;2022-09-27T03:17:48;1.52;;;1.20;;
73857;SDS011;62195;55.030;73.278;2022-09-27T03:20:33;1.73;;;1.23;;
73857;SDS011;62195;55.030;73.278;2022-09-27T03:23:15;5.45;;;4.70;;
73857;SDS011;62195;55.030;73.278;2022-09-27T03:25:41;5.90;;;3.20;;
73857;SDS011;62195;55.030;73.278;2022-09-27T03:28:14;14.50;;;3.58;;
73857;SDS011;62195;55.030;73.278;2022-09-27T03:30:43;2.40;;;1.30;;
73857;SDS011;62195;55.030;73.278;2022-09-27T03:33:13;1.88;;;1.30;;
73857;SDS011;62195;55.030;73.278;2022-09-27T03:35:42;3.67;;;1.30;;
73857;SDS011;62195;55.030;73.278;2022-09-27T03:38:08;1.02;;;0.90;;
73857;SDS011;62195;55.030;73.278;2022-09-27T03:40:36;1.55;;;1.10;;
73857;SDS011;62195;55.030;73.278;2022-09-27T03:43:04;3.55;;;1.00;;
73857;SDS011;62195;55.030;73.278;2022-09-27T03:45:32;1.23;;;0.90;;
73857;SDS011;62195;55.030;73.278;2022-09-27T03:48:01;1.98;;;0.88;;
73857;SDS011;62195;55.030;73.278;2022-09-27T03:50:32;1.15;;;0.73;;
73857;SDS011;62195;55.030;73.278;2022-09-27T03:52:58;1.00;;;0.90;;
73857;SDS011;62195;55.030;73.278;2022-09-27T03:55:29;1.80;;;1.00;;
73857;SDS011;62195;55.030;73.278;2022-09-27T03:57:56;2.47;;;1.00;;
73857;SDS011;62195;55.030;73.278;2022-09-27T04:00:23;1.52;;;0.98;;
73857;SDS011;62195;55.030;73.278;2022-09-27T04:02:50;2.28;;;1.00;;
73857;SDS011;62195;55.030;73.278;2022-09-27T04:05:23;1.88;;;0.90;;
73857;SDS011;62195;55.030;73.278;2022-09-27T04:07:55;1.80;;;0.90;;
73857;SDS011;62195;55.030;73.278;2022-09-27T04:10:22;1.75;;;1.00;;
73857;SDS011;62195;55.030;73.278;2022-09-27T04:12:49;4.13;;;2.05;;
73857;SDS011;62195;55.030;73.278;2022-09-27T04:15:19;2.70;;;1.25;;
73857;SDS011;62195;55.030;73.278;2022-09-27T04:17:59;1.90;;;1.05;;
73857;SDS011;62195;55.030;73.278;2022-09-27T04:20:31;1.37;;;1.03;;
73857;SDS011;62195;55.030;73.278;2022-09-27T04:23:01;4.95;;;1.30;;
73857;SDS011;62195;55.030;73.278;2022-09-27T04:25:28;2.80;;;1.33;;
73857;SDS011;62195;55.030;73.278;2022-09-27T04:27:57;1.70;;;1.00;;
73857;SDS011;62195;55.030;73.278;2022-09-27T04:30:35;1.65;;;1.10;;
73857;SDS011;62195;55.030;73.278;2022-09-27T04:33:21;1.88;;;1.20;;
73857;SDS011;62195;55.030;73.278;2022-09-27T04:36:17;2.83;;;1.40;;
73857;SDS011;62195;55.030;73.278;2022-09-27T04:39:10;5.97;;;1.98;;
73857;SDS011;62195;55.030;73.278;2022-09-27T04:41:39;6.90;;;1.65;;
73857;SDS011;62195;55.030;73.278;2022-09-27T04:44:05;2.78;;;1.58;;
73857;SDS011;62195;55.030;73.278;2022-09-27T04:46:41;3.75;;;1.70;;
73857;SDS011;62195;55.030;73.278;2022-09-27T04:49:09;4.53;;;2.05;;
73857;SDS011;62195;55.030;73.278;2022-09-27T04:51:35;6.35;;;1.58;;
73857;SDS011;62195;55.030;73.278;2022-09-27T04:54:02;4.45;;;1.60;;
73857;SDS011;62195;55.030;73.278;2022-09-27T04:56:32;2.63;;;1.52;;
73857;SDS011;62195;55.030;73.278;2022-09-27T04:59:09;1.95;;;1.20;;
73857;SDS011;62195;55.030;73.278;2022-09-27T05:01:36;3.63;;;1.20;;
73857;SDS011;62195;55.030;73.278;2022-09-27T05:04:35;1.35;;;0.90;;
73857;SDS011;62195;55.030;73.278;2022-09-27T05:07:04;2.00;;;0.98;;
73857;SDS011;62195;55.030;73.278;2022-09-27T05:09:38;1.40;;;0.90;;
73857;SDS011;62195;55.030;73.278;2022-09-27T05:12:05;1.92;;;1.25;;
73857;SDS011;62195;55.030;73.278;2022-09-27T05:14:41;1.27;;;0.90;;
73857;SDS011;62195;55.030;73.278;2022-09-27T05:17:30;1.30;;;0.98;;
73857;SDS011;62195;55.030;73.278;2022-09-27T05:20:15;1.35;;;0.90;;
73857;SDS011;62195;55.030;73.278;2022-09-27T05:23:16;1.20;;;0.73;;
73857;SDS011;62195;55.030;73.278;2022-09-27T05:25:45;3.55;;;1.13;;
73857;SDS011;62195;55.030;73.278;2022-09-27T05:28:11;1.50;;;0.93;;
73857;SDS011;62195;55.030;73.278;2022-09-27T05:30:37;2.15;;;1.10;;
73857;SDS011;62195;55.030;73.278;2022-09-27T05:33:09;1.77;;;1.10;;
73857;SDS011;62195;55.030;73.278;2022-09-27T05:35:55;1.67;;;0.80;;
73857;SDS011;62195;55.030;73.278;2022-09-27T05:38:27;1.80;;;1.05;;
73857;SDS011;62195;55.030;73.278;2022-09-27T05:40:57;1.23;;;0.88;;
73857;SDS011;62195;55.030;73.278;2022-09-27T05:43:24;1.10;;;0.90;;
73857;SDS011;62195;55.030;73.278;2022-09-27T05:45:51;0.85;;;0.80;;
73857;SDS011;62195;55.030;73.278;2022-09-27T05:48:19;2.42;;;1.15;;
73857;SDS011;62195;55.030;73.278;2022-09-27T05:51:06;2.22;;;0.80;;
73857;SDS011;62195;55.030;73.278;2022-09-27T05:53:36;2.10;;;0.90;;
73857;SDS011;62195;55.030;73.278;2022-09-27T05:56:05;1.98;;;0.98;;
73857;SDS011;62195;55.030;73.278;2022-09-27T05:58:57;1.35;;;0.95;;
73857;SDS011;62195;55.030;73.278;2022-09-27T06:01:27;1.42;;;1.00;;
73857;SDS011;62195;55.030;73.278;2022-09-27T06:04:17;1.83;;;1.02;;
73857;SDS011;62195;55.030;73.278;2022-09-27T06:07:21;1.60;;;1.10;;
73857;SDS011;62195;55.030;73.278;2022-09-27T06:09:47;2.28;;;1.00;;
73857;SDS011;62195;55.030;73.278;2022-09-27T06:12:14;1.40;;;0.70;;
73857;SDS011;62195;55.030;73.278;2022-09-27T06:14:51;1.17;;;0.80;;
73857;SDS011;62195;55.030;73.278;2022-09-27T06:17:33;1.27;;;0.88;;
73857;SDS011;62195;55.030;73.278;2022-09-27T06:20:06;2.05;;;0.80;;
73857;SDS011;62195;55.030;73.278;2022-09-27T06:22:34;1.10;;;0.90;;
73857;SDS011;62195;55.030;73.278;2022-09-27T06:25:08;1.20;;;0.90;;
73857;SDS011;62195;55.030;73.278;2022-09-27T06:27:45;0.80;;;0.80;;
73857;SDS011;62195;55.030;73.278;2022-09-27T06:30:27;1.37;;;1.20;;
73857;SDS011;62195;55.030;73.278;2022-09-27T06:32:58;2.03;;;1.15;;
73857;SDS011;62195;55.030;73.278;2022-09-27T06:35:33;1.52;;;1.00;;
73857;SDS011;62195;55.030;73.278;2022-09-27T06:38:11;1.48;;;1.00;;
73857;SDS011;62195;55.030;73.278;2022-09-27T06:40:47;2.67;;;1.20;;
73857;SDS011;62195;55.030;73.278;2022-09-27T06:43:22;1.90;;;0.90;;
73857;SDS011;62195;55.030;73.278;2022-09-27T06:45:59;1.08;;;0.90;;
73857;SDS011;62195;55.030;73.278;2022-09-27T06:48:43;2.65;;;1.08;;
73857;SDS011;62195;55.030;73.278;2022-09-27T06:51:14;0.60;;;0.60;;
73857;SDS011;62195;55.030;73.278;2022-09-27T06:53:41;1.15;;;0.73;;
73857;SDS011;62195;55.030;73.278;2022-09-27T06:56:18;1.90;;;0.75;;
73857;SDS011;62195;55.030;73.278;2022-09-27T06:58:54;1.10;;;0.90;;
73857;SDS011;62195;55.030;73.278;2022-09-27T07:01:41;1.02;;;0.73;;
73857;SDS011;62195;55.030;73.278;2022-09-27T07:04:14;0.73;;;0.70;;
73857;SDS011;62195;55.030;73.278;2022-09-27T07:06:50;0.68;;;0.60;;
73857;SDS011;62195;55.030;73.278;2022-09-27T07:09:23;1.30;;;1.00;;
73857;SDS011;62195;55.030;73.278;2022-09-27T07:11:49;1.13;;;0.90;;
73857;SDS011;62195;55.030;73.278;2022-09-27T07:14:16;0.95;;;0.75;;
73857;SDS011;62195;55.030;73.278;2022-09-27T07:16:43;1.55;;;0.93;;
73857;SDS011;62195;55.030;73.278;2022-09-27T07:19:10;2.13;;;0.82;;
73857;SDS011;62195;55.030;73.278;2022-09-27T07:21:44;1.15;;;0.80;;
73857;SDS011;62195;55.030;73.278;2022-09-27T07:24:11;1.20;;;1.00;;
73857;SDS011;62195;55.030;73.278;2022-09-27T07:26:38;2.33;;;1.70;;
73857;SDS011;62195;55.030;73.278;2022-09-27T07:29:07;1.25;;;1.10;;
73857;SDS011;62195;55.030;73.278;2022-09-27T07:31:33;3.33;;;1.90;;
73857;SDS011;62195;55.030;73.278;2022-09-27T07:34:02;3.42;;;2.08;;
73857;SDS011;62195;55.030;73.278;2022-09-27T07:36:28;2.83;;;1.85;;
73857;SDS011;62195;55.030;73.278;2022-09-27T07:38:57;2.63;;;1.35;;
73857;SDS011;62195;55.030;73.278;2022-09-27T07:41:25;1.95;;;1.00;;
73857;SDS011;62195;55.030;73.278;2022-09-27T07:43:52;1.08;;;0.98;;
73857;SDS011;62195;55.030;73.278;2022-09-27T07:46:20;0.80;;;0.80;;
73857;SDS011;62195;55.030;73.278;2022-09-27T07:49:15;3.70;;;1.10;;
73857;SDS011;62195;55.030;73.278;2022-09-27T07:51:58;2.15;;;1.15;;
73857;SDS011;62195;55.030;73.278;2022-09-27T07:54:37;1.92;;;1.20;;
73857;SDS011;62195;55.030;73.278;2022-09-27T07:57:06;1.30;;;1.08;;
73857;SDS011;62195;55.030;73.278;2022-09-27T07:59:52;2.03;;;1.30;;
73857;SDS011;62195;55.030;73.278;2022-09-27T08:02:20;5.85;;;1.50;;
73857;SDS011;62195;55.030;73.278;2022-09-27T08:04:48;3.88;;;1.75;;
73857;SDS011;62195;55.030;73.278;2022-09-27T08:07:20;1.85;;;1.00;;
73857;SDS011;62195;55.030;73.278;2022-09-27T08:09:51;1.92;;;1.20;;
73857;SDS011;62195;55.030;73.278;2022-09-27T08:12:17;1.42;;;1.08;;
73857;SDS011;62195;55.030;73.278;2022-09-27T08:14:46;3.47;;;1.65;;
73857;SDS011;62195;55.030;73.278;2022-09-27T08:17:13;4.80;;;2.17;;
73857;SDS011;62195;55.030;73.278;2022-09-27T08:19:58;4.07;;;1.35;;
73857;SDS011;62195;55.030;73.278;2022-09-27T08:22:44;4.00;;;1.75;;
73857;SDS011;62195;55.030;73.278;2022-09-27T08:25:24;6.00;;;2.03;;
73857;SDS011;62195;55.030;73.278;2022-09-27T08:28:16;5.68;;;2.40;;
73857;SDS011;62195;55.030;73.278;2022-09-27T08:30:51;4.75;;;2.10;;
73857;SDS011;62195;55.030;73.278;2022-09-27T08:33:18;1.83;;;1.33;;
73857;SDS011;62195;55.030;73.278;2022-09-27T08:35:45;0.98;;;0.80;;
73857;SDS011;62195;55.030;73.278;2022-09-27T08:38:11;2.38;;;1.50;;
73857;SDS011;62195;55.030;73.278;2022-09-27T08:48:48;2.53;;;1.83;;
73857;SDS011;62195;55.030;73.278;2022-09-27T08:51:20;3.97;;;2.00;;
73857;SDS011;62195;55.030;73.278;2022-09-27T08:53:59;3.17;;;2.20;;
73857;SDS011;62195;55.030;73.278;2022-09-27T08:56:33;2.45;;;1.40;;
73857;SDS011;62195;55.030;73.278;2022-09-27T08:59:03;3.38;;;1.58;;
73857;SDS011;62195;55.030;73.278;2022-09-27T09:01:37;2.80;;;1.60;;
73857;SDS011;62195;55.030;73.278;2022-09-27T09:04:38;3.28;;;1.50;;
73857;SDS011;62195;55.030;73.278;2022-09-27T09:22:04;3.97;;;1.58;;
73857;SDS011;62195;55.030;73.278;2022-09-27T09:25:15;2.42;;;1.67;;
73857;SDS011;62195;55.030;73.278;2022-09-27T09:33:31;2.47;;;1.30;;
73857;SDS011;62195;55.030;73.278;2022-09-27T09:36:11;1.13;;;0.85;;
73857;SDS011;62195;55.030;73.278;2022-09-27T09:47:26;4.72;;;2.05;;
73857;SDS011;62195;55.030;73.278;2022-09-27T09:50:03;5.82;;;2.08;;
73857;SDS011;62195;55.030;73.278;2022-09-27T09:52:40;2.97;;;1.67;;
73857;SDS011;62195;55.030;73.278;2022-09-27T09:55:20;3.58;;;2.30;;
73857;SDS011;62195;55.030;73.278;2022-09-27T10:00:28;4.38;;;2.03;;
73857;SDS011;62195;55.030;73.278;2022-09-27T10:03:00;3.60;;;2.67;;
73857;SDS011;62195;55.030;73.278;2022-09-27T10:05:29;6.63;;;2.70;;
73857;SDS011;62195;55.030;73.278;2022-09-27T10:08:06;5.22;;;3.10;;
73857;SDS011;62195;55.030;73.278;2022-09-27T10:10:37;5.82;;;3.50;;
73857;SDS011;62195;55.030;73.278;2022-09-27T10:13:29;6.22;;;2.60;;
73857;SDS011;62195;55.030;73.278;2022-09-27T10:16:11;3.90;;;2.60;;
73857;SDS011;62195;55.030;73.278;2022-09-27T10:18:41;5.90;;;2.60;;
73857;SDS011;62195;55.030;73.278;2022-09-27T10:21:21;5.40;;;2.90;;
73857;SDS011;62195;55.030;73.278;2022-09-27T10:24:11;4.85;;;2.63;;
73857;SDS011;62195;55.030;73.278;2022-09-27T10:26:58;5.30;;;2.90;;
73857;SDS011;62195;55.030;73.278;2022-09-27T10:29:29;3.95;;;2.47;;
73857;SDS011;62195;55.030;73.278;2022-09-27T10:32:03;3.67;;;2.35;;
73857;SDS011;62195;55.030;73.278;2022-09-27T10:34:41;4.85;;;2.30;;
73857;SDS011;62195;55.030;73.278;2022-09-27T10:37:18;3.63;;;2.20;;
73857;SDS011;62195;55.030;73.278;2022-09-27T10:40:24;3.10;;;1.77;;
73857;SDS011;62195;55.030;73.278;2022-09-27T10:42:56;3.03;;;1.92;;
73857;SDS011;62195;55.030;73.278;2022-09-27T10:45:32;3.80;;;1.80;;
73857;SDS011;62195;55.030;73.278;2022-09-27T10:48:17;2.75;;;1.63;;
73857;SDS011;62195;55.030;73.278;2022-09-27T10:51:00;3.60;;;2.10;;
73857;SDS011;62195;55.030;73.278;2022-09-27T10:53:48;4.28;;;2.30;;
73857;SDS011;62195;55.030;73.278;2022-09-27T10:56:25;4.03;;;2.22;;
73857;SDS011;62195;55.030;73.278;2022-09-27T10:58:54;4.72;;;2.22;;
73857;SDS011;62195;55.030;73.278;2022-09-27T11:01:23;6.57;;;2.03;;
73857;SDS011;62195;55.030;73.278;2022-09-27T11:04:30;4.25;;;2.10;;
73857;SDS011;62195;55.030;73.278;2022-09-27T11:07:06;4.30;;;2.90;;
73857;SDS011;62195;55.030;73.278;2022-09-27T11:09:53;4.97;;;2.83;;
73857;SDS011;62195;55.030;73.278;2022-09-27T11:12:31;5.43;;;3.00;;
73857;SDS011;62195;55.030;73.278;2022-09-27T11:15:15;5.28;;;3.70;;
73857;SDS011;62195;55.030;73.278;2022-09-27T11:17:56;5.20;;;3.40;;
73857;SDS011;62195;55.030;73.278;2022-09-27T11:20:42;5.30;;;3.20;;
73857;SDS011;62195;55.030;73.278;2022-09-27T11:23:56;5.30;;;3.92;;
73857;SDS011;62195;55.030;73.278;2022-09-27T11:29:13;5.82;;;3.40;;
73857;SDS011;62195;55.030;73.278;2022-09-27T11:35:03;4.82;;;3.15;;
73857;SDS011;62195;55.030;73.278;2022-09-27T11:38:15;6.32;;;3.90;;
73857;SDS011;62195;55.030;73.278;2022-09-27T11:44:08;7.63;;;3.53;;
73857;SDS011;62195;55.030;73.278;2022-09-27T11:46:43;5.38;;;3.38;;
73857;SDS011;62195;55.030;73.278;2022-09-27T11:57:23;5.95;;;3.60;;
73857;SDS011;62195;55.030;73.278;2022-09-27T12:03:31;5.20;;;2.70;;
73857;SDS011;62195;55.030;73.278;2022-09-27T12:06:24;4.90;;;3.40;;
73857;SDS011;62195;55.030;73.278;2022-09-27T12:09:14;6.93;;;3.28;;
73857;SDS011;62195;55.030;73.278;2022-09-27T12:17:06;6.65;;;3.05;;
73857;SDS011;62195;55.030;73.278;2022-09-27T12:19:54;4.72;;;3.00;;
73857;SDS011;62195;55.030;73.278;2022-09-27T12:23:14;7.13;;;3.40;;
73857;SDS011;62195;55.030;73.278;2022-09-27T12:26:12;5.78;;;3.10;;
73857;SDS011;62195;55.030;73.278;2022-09-27T12:31:35;5.80;;;3.40;;
73857;SDS011;62195;55.030;73.278;2022-09-27T12:34:25;5.80;;;2.80;;
73857;SDS011;62195;55.030;73.278;2022-09-27T12:37:00;7.30;;;2.90;;
73857;SDS011;62195;55.030;73.278;2022-09-27T12:39:46;6.45;;;3.55;;
73857;SDS011;62195;55.030;73.278;2022-09-27T12:51:23;10.45;;;4.90;;
73857;SDS011;62195;55.030;73.278;2022-09-27T12:59:17;10.02;;;3.60;;
73857;SDS011;62195;55.030;73.278;2022-09-27T13:10:34;7.18;;;2.55;;
73857;SDS011;62195;55.030;73.278;2022-09-27T13:13:27;7.80;;;2.60;;
73857;SDS011;62195;55.030;73.278;2022-09-27T13:15:57;6.00;;;3.13;;
73857;SDS011;62195;55.030;73.278;2022-09-27T13:26:20;7.95;;;3.10;;
73857;SDS011;62195;55.030;73.278;2022-09-27T13:29:07;4.57;;;2.70;;
73857;SDS011;62195;55.030;73.278;2022-09-27T13:37:25;6.07;;;2.17;;
73857;SDS011;62195;55.030;73.278;2022-09-27T13:40:40;5.05;;;2.75;;
73857;SDS011;62195;55.030;73.278;2022-09-27T13:47:03;4.95;;;2.03;;
73857;SDS011;62195;55.030;73.278;2022-09-27T13:49:43;4.30;;;2.67;;
73857;SDS011;62195;55.030;73.278;2022-09-27T13:52:35;5.28;;;2.17;;
73857;SDS011;62195;55.030;73.278;2022-09-27T13:55:44;5.63;;;3.65;;
73857;SDS011;62195;55.030;73.278;2022-09-27T13:58:49;6.70;;;3.53;;
73857;SDS011;62195;55.030;73.278;2022-09-27T14:01:35;6.93;;;3.65;;
73857;SDS011;62195;55.030;73.278;2022-09-27T14:04:16;6.35;;;3.47;;
73857;SDS011;62195;55.030;73.278;2022-09-27T14:06:51;8.35;;;3.90;;
73857;SDS011;62195;55.030;73.278;2022-09-27T14:09:36;4.55;;;2.63;;
73857;SDS011;62195;55.030;73.278;2022-09-27T14:12:16;4.97;;;2.95;;
73857;SDS011;62195;55.030;73.278;2022-09-27T14:14:55;3.75;;;2.40;;
73857;SDS011;62195;55.030;73.278;2022-09-27T14:17:23;3.28;;;2.03;;
73857;SDS011;62195;55.030;73.278;2022-09-27T14:19:51;5.15;;;2.92;;
73857;SDS011;62195;55.030;73.278;2022-09-27T14:22:22;4.05;;;2.38;;
73857;SDS011;62195;55.030;73.278;2022-09-27T14:25:15;5.57;;;2.55;;
73857;SDS011;62195;55.030;73.278;2022-09-27T14:27:50;4.20;;;2.75;;
73857;SDS011;62195;55.030;73.278;2022-09-27T14:30:29;4.50;;;2.42;;
73857;SDS011;62195;55.030;73.278;2022-09-27T14:33:29;3.97;;;2.30;;
73857;SDS011;62195;55.030;73.278;2022-09-27T14:36:02;7.03;;;3.20;;
73857;SDS011;62195;55.030;73.278;2022-09-27T14:38:54;3.83;;;2.50;;
73857;SDS011;62195;55.030;73.278;2022-09-27T14:41:34;4.00;;;2.50;;
73857;SDS011;62195;55.030;73.278;2022-09-27T14:44:02;6.70;;;2.60;;
73857;SDS011;62195;55.030;73.278;2022-09-27T14:46:29;4.88;;;3.08;;
73857;SDS011;62195;55.030;73.278;2022-09-27T14:48:56;5.20;;;2.50;;
73857;SDS011;62195;55.030;73.278;2022-09-27T14:51:30;3.97;;;2.50;;
73857;SDS011;62195;55.030;73.278;2022-09-27T14:53:57;4.38;;;2.90;;
73857;SDS011;62195;55.030;73.278;2022-09-27T14:56:32;3.78;;;2.20;;
73857;SDS011;62195;55.030;73.278;2022-09-27T14:59:14;4.10;;;2.40;;
73857;SDS011;62195;55.030;73.278;2022-09-27T15:01:48;5.55;;;3.13;;
73857;SDS011;62195;55.030;73.278;2022-09-27T15:04:16;4.72;;;2.42;;
73857;SDS011;62195;55.030;73.278;2022-09-27T15:06:44;5.47;;;2.58;;
73857;SDS011;62195;55.030;73.278;2022-09-27T15:09:12;5.53;;;2.28;;
73857;SDS011;62195;55.030;73.278;2022-09-27T15:11:40;5.00;;;2.40;;
73857;SDS011;62195;55.030;73.278;2022-09-27T15:14:10;4.57;;;2.40;;
73857;SDS011;62195;55.030;73.278;2022-09-27T15:16:41;6.00;;;2.28;;
73857;SDS011;62195;55.030;73.278;2022-09-27T15:19:24;5.65;;;2.50;;
73857;SDS011;62195;55.030;73.278;2022-09-27T15:21:53;4.32;;;2.40;;
73857;SDS011;62195;55.030;73.278;2022-09-27T15:25:04;5.25;;;2.80;;
73857;SDS011;62195;55.030;73.278;2022-09-27T15:27:16;4.15;;;2.45;;
73857;SDS011;62195;55.030;73.278;2022-09-27T15:29:51;6.80;;;2.92;;
73857;SDS011;62195;55.030;73.278;2022-09-27T15:32:29;10.88;;;3.45;;
73857;SDS011;62195;55.030;73.278;2022-09-27T15:34:55;10.80;;;4.80;;
73857;SDS011;62195;55.030;73.278;2022-09-27T15:37:35;8.25;;;3.90;;
73857;SDS011;62195;55.030;73.278;2022-09-27T15:42:55;6.78;;;3.63;;
73857;SDS011;62195;55.030;73.278;2022-09-27T15:45:28;7.30;;;3.00;;
73857;SDS011;62195;55.030;73.278;2022-09-27T15:48:18;6.93;;;3.25;;
73857;SDS011;62195;55.030;73.278;2022-09-27T15:50:46;4.38;;;2.60;;
73857;SDS011;62195;55.030;73.278;2022-09-27T15:55:59;5.75;;;2.80;;
73857;SDS011;62195;55.030;73.278;2022-09-27T15:58:26;4.13;;;2.83;;
73857;SDS011;62195;55.030;73.278;2022-09-27T16:00:54;6.05;;;3.20;;
73857;SDS011;62195;55.030;73.278;2022-09-27T16:03:22;8.30;;;3.15;;
73857;SDS011;62195;55.030;73.278;2022-09-27T16:05:50;4.95;;;3.42;;
73857;SDS011;62195;55.030;73.278;2022-09-27T16:08:22;3.90;;;2.40;;
73857;SDS011;62195;55.030;73.278;2022-09-27T16:10:50;4.47;;;2.90;;
73857;SDS011;62195;55.030;73.278;2022-09-27T16:13:18;5.00;;;2.88;;
73857;SDS011;62195;55.030;73.278;2022-09-27T16:15:44;5.55;;;2.80;;
73857;SDS011;62195;55.030;73.278;2022-09-27T16:18:12;6.15;;;3.05;;
73857;SDS011;62195;55.030;73.278;2022-09-27T16:20:39;9.02;;;3.95;;
73857;SDS011;62195;55.030;73.278;2022-09-27T16:23:05;6.82;;;3.20;;
73857;SDS011;62195;55.030;73.278;2022-09-27T16:25:32;4.53;;;2.20;;
73857;SDS011;62195;55.030;73.278;2022-09-27T16:27:59;5.05;;;2.60;;
73857;SDS011;62195;55.030;73.278;2022-09-27T16:30:26;3.28;;;2.50;;
73857;SDS011;62195;55.030;73.278;2022-09-27T16:33:04;3.60;;;2.38;;
73857;SDS011;62195;55.030;73.278;2022-09-27T16:35:30;4.15;;;2.40;;
73857;SDS011;62195;55.030;73.278;2022-09-27T16:37:57;4.70;;;1.85;;
73857;SDS011;62195;55.030;73.278;2022-09-27T16:40:33;2.28;;;1.80;;
73857;SDS011;62195;55.030;73.278;2022-09-27T16:42:59;5.75;;;2.55;;
73857;SDS011;62195;55.030;73.278;2022-09-27T16:45:25;3.65;;;2.63;;
73857;SDS011;62195;55.030;73.278;2022-09-27T16:47:58;5.10;;;2.50;;
73857;SDS011;62195;55.030;73.278;2022-09-27T16:50:25;3.38;;;2.17;;
73857;SDS011;62195;55.030;73.278;2022-09-27T16:53:10;4.22;;;2.40;;
73857;SDS011;62195;55.030;73.278;2022-09-27T16:55:38;6.03;;;2.85;;
73857;SDS011;62195;55.030;73.278;2022-09-27T16:58:04;4.70;;;2.83;;
73857;SDS011;62195;55.030;73.278;2022-09-27T17:00:32;6.75;;;3.00;;
73857;SDS011;62195;55.030;73.278;2022-09-27T17:02:59;6.50;;;3.20;;
73857;SDS011;62195;55.030;73.278;2022-09-27T17:05:25;5.60;;;3.05;;
73857;SDS011;62195;55.030;73.278;2022-09-27T17:07:51;5.75;;;2.85;;
73857;SDS011;62195;55.030;73.278;2022-09-27T17:10:19;4.43;;;2.55;;
73857;SDS011;62195;55.030;73.278;2022-09-27T17:12:47;3.63;;;2.22;;
73857;SDS011;62195;55.030;73.278;2022-09-27T17:15:14;3.90;;;2.20;;
73857;SDS011;62195;55.030;73.278;2022-09-27T17:17:41;5.30;;;2.50;;
73857;SDS011;62195;55.030;73.278;2022-09-27T17:20:09;4.85;;;2.67;;
73857;SDS011;62195;55.030;73.278;2022-09-27T17:22:36;4.40;;;2.65;;
73857;SDS011;62195;55.030;73.278;2022-09-27T17:25:02;3.33;;;2.35;;
73857;SDS011;62195;55.030;73.278;2022-09-27T17:27:29;3.85;;;2.40;;
73857;SDS011;62195;55.030;73.278;2022-09-27T17:29:55;4.97;;;2.92;;
73857;SDS011;62195;55.030;73.278;2022-09-27T17:32:21;6.15;;;3.22;;
73857;SDS011;62195;55.030;73.278;2022-09-27T17:34:49;6.32;;;3.00;;
73857;SDS011;62195;55.030;73.278;2022-09-27T17:37:16;11.50;;;3.22;;
73857;SDS011;62195;55.030;73.278;2022-09-27T17:39:43;7.25;;;3.60;;
73857;SDS011;62195;55.030;73.278;2022-09-27T17:42:09;12.70;;;4.32;;
73857;SDS011;62195;55.030;73.278;2022-09-27T17:44:37;12.23;;;3.63;;
73857;SDS011;62195;55.030;73.278;2022-09-27T17:47:03;9.02;;;3.10;;
73857;SDS011;62195;55.030;73.278;2022-09-27T17:49:48;6.85;;;3.13;;
73857;SDS011;62195;55.030;73.278;2022-09-27T17:52:32;4.40;;;2.58;;
73857;SDS011;62195;55.030;73.278;2022-09-27T17:54:59;3.70;;;2.45;;
73857;SDS011;62195;55.030;73.278;2022-09-27T17:57:26;4.25;;;2.05;;
73857;SDS011;62195;55.030;73.278;2022-09-27T17:59:53;5.53;;;2.28;;
73857;SDS011;62195;55.030;73.278;2022-09-27T18:02:24;4.30;;;2.47;;
73857;SDS011;62195;55.030;73.278;2022-09-27T18:04:51;5.28;;;2.42;;
73857;SDS011;62195;55.030;73.278;2022-09-27T18:07:17;6.18;;;2.92;;